sensor_id;sensor_type;location;lat;lon;timestamp;temperature;humidity
66337;SHT30;53139;45.576;5.304;2023-07-31T00:02:06;13.19;85.48
66337;SHT30;53139;45.576;5.304;2023-07-31T00:05:08;13.46;85.27
66337;SHT30;53139;45.576;5.304;2023-07-31T00:08:09;13.09;85.61
66337;SHT30;53139;45.576;5.304;2023-07-31T00:11:09;12.99;87.64
66337;SHT30;53139;45.576;5.304;2023-07-31T00:14:10;12.82;86.37
66337;SHT30;53139;45.576;5.304;2023-07-31T00:17:10;13.05;86.38
66337;SHT30;53139;45.576;5.304;2023-07-31T00:20:11;13.16;88.06
66337;SHT30;53139;45.576;5.304;2023-07-31T00:23:11;13.12;86.33
66337;SHT30;53139;45.576;5.304;2023-07-31T00:26:11;13.02;88.61
66337;SHT30;53139;45.576;5.304;2023-07-31T00:29:12;13.06;87.63
66337;SHT30;53139;45.576;5.304;2023-07-31T00:32:12;12.84;88.51
66337;SHT30;53139;45.576;5.304;2023-07-31T00:35:12;12.67;86.25
66337;SHT30;53139;45.576;5.304;2023-07-31T00:38:13;12.51;85.63
66337;SHT30;53139;45.576;5.304;2023-07-31T00:41:13;12.33;86.79
66337;SHT30;53139;45.576;5.304;2023-07-31T00:44:13;12.19;86.31
66337;SHT30;53139;45.576;5.304;2023-07-31T00:47:14;12.16;86.80
66337;SHT30;53139;45.576;5.304;2023-07-31T00:50:14;12.26;86.79
66337;SHT30;53139;45.576;5.304;2023-07-31T00:53:15;12.45;90.75
66337;SHT30;53139;45.576;5.304;2023-07-31T00:56:15;12.34;88.97
66337;SHT30;53139;45.576;5.304;2023-07-31T00:59:16;12.48;89.36
66337;SHT30;53139;45.576;5.304;2023-07-31T01:02:18;12.29;87.79
66337;SHT30;53139;45.576;5.304;2023-07-31T01:05:29;12.44;88.97
66337;SHT30;53139;45.576;5.304;2023-07-31T01:09:03;12.41;88.83
66337;SHT30;53139;45.576;5.304;2023-07-31T01:12:04;12.64;87.86
66337;SHT30;53139;45.576;5.304;2023-07-31T01:15:08;12.65;88.79
66337;SHT30;53139;45.576;5.304;2023-07-31T01:18:12;12.53;89.96
66337;SHT30;53139;45.576;5.304;2023-07-31T01:21:35;12.26;90.30
66337;SHT30;53139;45.576;5.304;2023-07-31T01:24:55;12.44;89.99
66337;SHT30;53139;45.576;5.304;2023-07-31T01:28:06;12.00;87.87
66337;SHT30;53139;45.576;5.304;2023-07-31T01:31:10;12.34;91.43
66337;SHT30;53139;45.576;5.304;2023-07-31T01:34:13;12.54;89.68
66337;SHT30;53139;45.576;5.304;2023-07-31T01:37:15;12.41;87.77
66337;SHT30;53139;45.576;5.304;2023-07-31T01:40:15;12.32;90.32
66337;SHT30;53139;45.576;5.304;2023-07-31T01:43:16;12.82;86.70
66337;SHT30;53139;45.576;5.304;2023-07-31T01:46:16;12.62;87.40
66337;SHT30;53139;45.576;5.304;2023-07-31T01:49:17;12.55;89.04
66337;SHT30;53139;45.576;5.304;2023-07-31T01:52:17;12.44;88.96
66337;SHT30;53139;45.576;5.304;2023-07-31T01:55:17;12.16;90.43
66337;SHT30;53139;45.576;5.304;2023-07-31T01:58:18;12.10;90.95
66337;SHT30;53139;45.576;5.304;2023-07-31T02:01:18;12.16;91.14
66337;SHT30;53139;45.576;5.304;2023-07-31T02:04:18;11.99;90.82
66337;SHT30;53139;45.576;5.304;2023-07-31T02:07:19;12.08;90.38
66337;SHT30;53139;45.576;5.304;2023-07-31T02:10:19;12.19;89.99
66337;SHT30;53139;45.576;5.304;2023-07-31T02:13:19;12.02;90.26
66337;SHT30;53139;45.576;5.304;2023-07-31T02:16:20;12.20;89.63
66337;SHT30;53139;45.576;5.304;2023-07-31T02:19:20;12.26;87.62
66337;SHT30;53139;45.576;5.304;2023-07-31T02:22:20;12.02;89.63
66337;SHT30;53139;45.576;5.304;2023-07-31T02:25:21;11.90;90.04
66337;SHT30;53139;45.576;5.304;2023-07-31T02:28:21;11.77;90.17
66337;SHT30;53139;45.576;5.304;2023-07-31T02:31:22;11.64;89.57
66337;SHT30;53139;45.576;5.304;2023-07-31T02:34:22;11.38;88.85
66337;SHT30;53139;45.576;5.304;2023-07-31T02:37:23;11.62;91.93
66337;SHT30;53139;45.576;5.304;2023-07-31T02:40:23;11.65;92.82
66337;SHT30;53139;45.576;5.304;2023-07-31T02:43:24;11.34;91.16
66337;SHT30;53139;45.576;5.304;2023-07-31T02:46:24;11.57;90.29
66337;SHT30;53139;45.576;5.304;2023-07-31T02:49:25;11.55;89.43
66337;SHT30;53139;45.576;5.304;2023-07-31T02:52:25;11.54;91.43
66337;SHT30;53139;45.576;5.304;2023-07-31T02:55:26;11.92;90.98
66337;SHT30;53139;45.576;5.304;2023-07-31T02:58:26;11.58;90.75
66337;SHT30;53139;45.576;5.304;2023-07-31T03:01:26;11.41;91.87
66337;SHT30;53139;45.576;5.304;2023-07-31T03:04:27;11.71;92.42
66337;SHT30;53139;45.576;5.304;2023-07-31T03:07:27;11.60;92.31
66337;SHT30;53139;45.576;5.304;2023-07-31T03:10:28;11.34;90.15
66337;SHT30;53139;45.576;5.304;2023-07-31T03:13:29;11.28;90.41
66337;SHT30;53139;45.576;5.304;2023-07-31T03:16:29;11.31;91.19
66337;SHT30;53139;45.576;5.304;2023-07-31T03:19:33;11.26;89.87
66337;SHT30;53139;45.576;5.304;2023-07-31T03:22:33;11.37;90.71
66337;SHT30;53139;45.576;5.304;2023-07-31T03:25:35;11.64;90.33
66337;SHT30;53139;45.576;5.304;2023-07-31T03:28:35;11.58;91.97
66337;SHT30;53139;45.576;5.304;2023-07-31T03:31:35;11.71;92.84
66337;SHT30;53139;45.576;5.304;2023-07-31T03:34:36;11.74;90.38
66337;SHT30;53139;45.576;5.304;2023-07-31T03:37:36;11.71;90.48
66337;SHT30;53139;45.576;5.304;2023-07-31T03:40:37;11.72;92.64
66337;SHT30;53139;45.576;5.304;2023-07-31T03:43:38;11.62;92.38
66337;SHT30;53139;45.576;5.304;2023-07-31T03:46:38;11.77;90.16
66337;SHT30;53139;45.576;5.304;2023-07-31T03:49:39;11.85;90.53
66337;SHT30;53139;45.576;5.304;2023-07-31T03:52:39;11.95;88.81
66337;SHT30;53139;45.576;5.304;2023-07-31T03:55:39;11.65;89.63
66337;SHT30;53139;45.576;5.304;2023-07-31T03:58:40;11.55;90.72
66337;SHT30;53139;45.576;5.304;2023-07-31T04:01:40;11.16;90.95
66337;SHT30;53139;45.576;5.304;2023-07-31T04:04:40;11.06;91.82
66337;SHT30;53139;45.576;5.304;2023-07-31T04:07:41;11.02;90.71
66337;SHT30;53139;45.576;5.304;2023-07-31T04:10:41;11.17;93.05
66337;SHT30;53139;45.576;5.304;2023-07-31T04:13:42;11.17;90.76
66337;SHT30;53139;45.576;5.304;2023-07-31T04:16:43;11.34;92.75
66337;SHT30;53139;45.576;5.304;2023-07-31T04:19:43;11.26;91.62
66337;SHT30;53139;45.576;5.304;2023-07-31T04:22:43;11.12;92.36
66337;SHT30;53139;45.576;5.304;2023-07-31T04:25:44;11.10;93.11
66337;SHT30;53139;45.576;5.304;2023-07-31T04:28:44;11.23;93.73
66337;SHT30;53139;45.576;5.304;2023-07-31T04:31:45;11.47;92.86
66337;SHT30;53139;45.576;5.304;2023-07-31T04:34:45;11.37;93.55
66337;SHT30;53139;45.576;5.304;2023-07-31T04:37:45;11.50;92.26
66337;SHT30;53139;45.576;5.304;2023-07-31T04:40:48;11.50;89.98
66337;SHT30;53139;45.576;5.304;2023-07-31T04:43:49;11.50;92.03
66337;SHT30;53139;45.576;5.304;2023-07-31T04:46:49;11.67;91.40
66337;SHT30;53139;45.576;5.304;2023-07-31T04:49:50;11.75;91.26
66337;SHT30;53139;45.576;5.304;2023-07-31T04:52:50;11.60;91.08
66337;SHT30;53139;45.576;5.304;2023-07-31T04:55:50;11.92;91.07
66337;SHT30;53139;45.576;5.304;2023-07-31T04:58:51;11.83;90.15
66337;SHT30;53139;45.576;5.304;2023-07-31T05:01:51;11.67;89.15
66337;SHT30;53139;45.576;5.304;2023-07-31T05:04:51;12.00;92.06
66337;SHT30;53139;45.576;5.304;2023-07-31T05:07:52;11.88;90.84
66337;SHT30;53139;45.576;5.304;2023-07-31T05:10:52;11.85;89.07
66337;SHT30;53139;45.576;5.304;2023-07-31T05:13:52;12.12;91.22
66337;SHT30;53139;45.576;5.304;2023-07-31T05:16:53;12.12;91.06
66337;SHT30;53139;45.576;5.304;2023-07-31T05:19:53;12.12;89.15
66337;SHT30;53139;45.576;5.304;2023-07-31T05:22:53;12.08;88.96
66337;SHT30;53139;45.576;5.304;2023-07-31T05:25:54;12.06;90.30
66337;SHT30;53139;45.576;5.304;2023-07-31T05:28:54;12.29;89.08
66337;SHT30;53139;45.576;5.304;2023-07-31T05:31:54;12.22;89.68
66337;SHT30;53139;45.576;5.304;2023-07-31T05:34:55;12.27;90.51
66337;SHT30;53139;45.576;5.304;2023-07-31T05:37:55;12.40;89.79
66337;SHT30;53139;45.576;5.304;2023-07-31T05:40:56;12.51;88.92
66337;SHT30;53139;45.576;5.304;2023-07-31T05:43:56;12.62;88.91
66337;SHT30;53139;45.576;5.304;2023-07-31T05:46:56;12.58;87.99
66337;SHT30;53139;45.576;5.304;2023-07-31T05:49:57;12.68;87.97
66337;SHT30;53139;45.576;5.304;2023-07-31T05:52:57;12.71;88.71
66337;SHT30;53139;45.576;5.304;2023-07-31T05:55:57;12.81;89.27
66337;SHT30;53139;45.576;5.304;2023-07-31T05:58:58;12.93;89.22
66337;SHT30;53139;45.576;5.304;2023-07-31T06:01:58;12.92;87.83
66337;SHT30;53139;45.576;5.304;2023-07-31T06:04:59;13.19;88.40
66337;SHT30;53139;45.576;5.304;2023-07-31T06:08:00;13.30;88.46
66337;SHT30;53139;45.576;5.304;2023-07-31T06:11:01;13.33;86.84
66337;SHT30;53139;45.576;5.304;2023-07-31T06:14:01;13.63;86.47
66337;SHT30;53139;45.576;5.304;2023-07-31T06:17:02;13.75;85.49
66337;SHT30;53139;45.576;5.304;2023-07-31T06:20:03;13.79;86.83
66337;SHT30;53139;45.576;5.304;2023-07-31T06:23:05;13.81;86.53
66337;SHT30;53139;45.576;5.304;2023-07-31T06:26:05;13.99;85.50
66337;SHT30;53139;45.576;5.304;2023-07-31T06:29:05;14.20;84.01
66337;SHT30;53139;45.576;5.304;2023-07-31T06:32:06;14.09;85.21
66337;SHT30;53139;45.576;5.304;2023-07-31T06:35:07;14.29;84.67
66337;SHT30;53139;45.576;5.304;2023-07-31T06:38:08;14.56;83.63
66337;SHT30;53139;45.576;5.304;2023-07-31T06:41:08;14.74;83.27
66337;SHT30;53139;45.576;5.304;2023-07-31T06:44:10;14.57;83.83
66337;SHT30;53139;45.576;5.304;2023-07-31T06:47:11;14.74;84.42
66337;SHT30;53139;45.576;5.304;2023-07-31T06:50:11;14.89;83.95
66337;SHT30;53139;45.576;5.304;2023-07-31T06:53:11;15.19;82.35
66337;SHT30;53139;45.576;5.304;2023-07-31T06:56:12;15.40;83.38
66337;SHT30;53139;45.576;5.304;2023-07-31T06:59:12;15.42;83.44
66337;SHT30;53139;45.576;5.304;2023-07-31T07:02:13;15.43;82.16
66337;SHT30;53139;45.576;5.304;2023-07-31T07:05:13;16.01;80.21
66337;SHT30;53139;45.576;5.304;2023-07-31T07:08:14;16.04;80.10
66337;SHT30;53139;45.576;5.304;2023-07-31T07:11:14;16.40;78.93
66337;SHT30;53139;45.576;5.304;2023-07-31T07:14:14;16.25;80.25
66337;SHT30;53139;45.576;5.304;2023-07-31T07:17:15;16.32;81.09
66337;SHT30;53139;45.576;5.304;2023-07-31T07:20:15;16.25;80.49
66337;SHT30;53139;45.576;5.304;2023-07-31T07:23:16;16.53;80.30
66337;SHT30;53139;45.576;5.304;2023-07-31T07:26:16;16.88;78.38
66337;SHT30;53139;45.576;5.304;2023-07-31T07:29:16;17.28;77.34
66337;SHT30;53139;45.576;5.304;2023-07-31T07:32:17;17.37;76.80
66337;SHT30;53139;45.576;5.304;2023-07-31T07:35:18;17.42;77.40
66337;SHT30;53139;45.576;5.304;2023-07-31T07:38:18;17.18;76.44
66337;SHT30;53139;45.576;5.304;2023-07-31T07:41:19;17.28;77.17
66337;SHT30;53139;45.576;5.304;2023-07-31T07:44:19;17.35;76.47
66337;SHT30;53139;45.576;5.304;2023-07-31T07:47:20;17.51;74.02
66337;SHT30;53139;45.576;5.304;2023-07-31T07:50:20;17.85;73.46
66337;SHT30;53139;45.576;5.304;2023-07-31T07:53:20;17.95;74.75
66337;SHT30;53139;45.576;5.304;2023-07-31T07:56:21;17.91;74.08
66337;SHT30;53139;45.576;5.304;2023-07-31T07:59:21;18.11;74.30
66337;SHT30;53139;45.576;5.304;2023-07-31T08:02:22;18.53;71.83
66337;SHT30;53139;45.576;5.304;2023-07-31T08:05:22;18.81;73.57
66337;SHT30;53139;45.576;5.304;2023-07-31T08:08:23;18.67;71.64
66337;SHT30;53139;45.576;5.304;2023-07-31T08:11:23;18.95;71.17
66337;SHT30;53139;45.576;5.304;2023-07-31T08:14:23;19.28;71.65
66337;SHT30;53139;45.576;5.304;2023-07-31T08:17:24;19.63;71.70
66337;SHT30;53139;45.576;5.304;2023-07-31T08:20:26;19.62;69.73
66337;SHT30;53139;45.576;5.304;2023-07-31T08:23:26;19.78;68.67
66337;SHT30;53139;45.576;5.304;2023-07-31T08:26:27;19.77;68.53
66337;SHT30;53139;45.576;5.304;2023-07-31T08:29:27;20.18;68.13
66337;SHT30;53139;45.576;5.304;2023-07-31T08:32:27;20.28;65.96
66337;SHT30;53139;45.576;5.304;2023-07-31T08:35:28;20.69;66.30
66337;SHT30;53139;45.576;5.304;2023-07-31T08:38:32;20.55;66.85
66337;SHT30;53139;45.576;5.304;2023-07-31T08:41:37;21.22;65.69
66337;SHT30;53139;45.576;5.304;2023-07-31T08:44:38;21.19;65.41
66337;SHT30;53139;45.576;5.304;2023-07-31T08:47:38;21.70;61.85
66337;SHT30;53139;45.576;5.304;2023-07-31T08:50:39;23.25;58.83
66337;SHT30;53139;45.576;5.304;2023-07-31T08:53:39;26.06;53.57
66337;SHT30;53139;45.576;5.304;2023-07-31T08:56:40;26.89;51.98
66337;SHT30;53139;45.576;5.304;2023-07-31T08:59:41;29.65;45.78
66337;SHT30;53139;45.576;5.304;2023-07-31T09:02:59;28.76;46.17
66337;SHT30;53139;45.576;5.304;2023-07-31T09:06:02;29.82;44.56
66337;SHT30;53139;45.576;5.304;2023-07-31T09:09:04;28.99;43.38
66337;SHT30;53139;45.576;5.304;2023-07-31T09:12:05;29.43;42.44
66337;SHT30;53139;45.576;5.304;2023-07-31T09:15:06;30.64;44.77
66337;SHT30;53139;45.576;5.304;2023-07-31T09:18:07;31.09;44.16
66337;SHT30;53139;45.576;5.304;2023-07-31T09:21:08;30.71;42.49
66337;SHT30;53139;45.576;5.304;2023-07-31T09:24:08;30.12;42.70
66337;SHT30;53139;45.576;5.304;2023-07-31T09:27:09;29.47;45.43
66337;SHT30;53139;45.576;5.304;2023-07-31T09:30:09;30.95;43.98
66337;SHT30;53139;45.576;5.304;2023-07-31T09:33:10;31.62;44.07
66337;SHT30;53139;45.576;5.304;2023-07-31T09:36:10;31.62;40.80
66337;SHT30;53139;45.576;5.304;2023-07-31T09:39:11;29.89;44.06
66337;SHT30;53139;45.576;5.304;2023-07-31T09:42:12;30.16;41.50
66337;SHT30;53139;45.576;5.304;2023-07-31T09:45:13;30.08;42.37
66337;SHT30;53139;45.576;5.304;2023-07-31T09:48:17;31.62;43.73
66337;SHT30;53139;45.576;5.304;2023-07-31T09:51:26;31.26;40.75
66337;SHT30;53139;45.576;5.304;2023-07-31T09:54:27;31.53;43.37
66337;SHT30;53139;45.576;5.304;2023-07-31T09:57:27;31.83;41.39
66337;SHT30;53139;45.576;5.304;2023-07-31T10:00:30;31.94;42.51
66337;SHT30;53139;45.576;5.304;2023-07-31T10:03:31;33.52;39.01
66337;SHT30;53139;45.576;5.304;2023-07-31T10:06:34;34.01;40.52
66337;SHT30;53139;45.576;5.304;2023-07-31T10:09:35;35.34;37.84
66337;SHT30;53139;45.576;5.304;2023-07-31T10:12:36;33.76;39.85
66337;SHT30;53139;45.576;5.304;2023-07-31T10:15:38;34.24;39.08
66337;SHT30;53139;45.576;5.304;2023-07-31T10:18:39;35.78;37.08
66337;SHT30;53139;45.576;5.304;2023-07-31T10:21:42;38.09;33.06
66337;SHT30;53139;45.576;5.304;2023-07-31T10:24:42;35.57;33.05
66337;SHT30;53139;45.576;5.304;2023-07-31T10:27:43;35.75;34.44
66337;SHT30;53139;45.576;5.304;2023-07-31T10:30:44;35.03;32.60
66337;SHT30;53139;45.576;5.304;2023-07-31T10:33:45;36.87;32.55
66337;SHT30;53139;45.576;5.304;2023-07-31T10:36:45;35.66;33.04
66337;SHT30;53139;45.576;5.304;2023-07-31T10:40:02;39.52;30.74
66337;SHT30;53139;45.576;5.304;2023-07-31T10:43:05;39.21;29.37
66337;SHT30;53139;45.576;5.304;2023-07-31T10:46:12;40.52;31.83
66337;SHT30;53139;45.576;5.304;2023-07-31T10:49:20;39.29;32.08
66337;SHT30;53139;45.576;5.304;2023-07-31T10:52:21;40.72;31.23
66337;SHT30;53139;45.576;5.304;2023-07-31T10:58:33;40.89;31.32
66337;SHT30;53139;45.576;5.304;2023-07-31T11:01:54;41.75;29.77
66337;SHT30;53139;45.576;5.304;2023-07-31T11:05:06;41.37;30.18
66337;SHT30;53139;45.576;5.304;2023-07-31T11:08:23;42.76;29.85
66337;SHT30;53139;45.576;5.304;2023-07-31T11:11:24;41.02;30.23
66337;SHT30;53139;45.576;5.304;2023-07-31T11:14:24;42.28;30.37
66337;SHT30;53139;45.576;5.304;2023-07-31T11:17:26;42.23;27.68
66337;SHT30;53139;45.576;5.304;2023-07-31T11:20:27;42.44;27.44
66337;SHT30;53139;45.576;5.304;2023-07-31T11:23:30;43.38;28.14
66337;SHT30;53139;45.576;5.304;2023-07-31T11:26:30;43.77;28.61
66337;SHT30;53139;45.576;5.304;2023-07-31T11:29:31;41.48;29.58
66337;SHT30;53139;45.576;5.304;2023-07-31T11:32:31;39.21;28.46
66337;SHT30;53139;45.576;5.304;2023-07-31T11:35:36;42.59;28.84
66337;SHT30;53139;45.576;5.304;2023-07-31T11:38:41;41.71;29.42
66337;SHT30;53139;45.576;5.304;2023-07-31T11:41:42;39.12;28.12
66337;SHT30;53139;45.576;5.304;2023-07-31T11:44:42;44.02;25.62
66337;SHT30;53139;45.576;5.304;2023-07-31T11:47:48;41.20;28.70
66337;SHT30;53139;45.576;5.304;2023-07-31T11:50:52;41.76;27.32
66337;SHT30;53139;45.576;5.304;2023-07-31T11:53:57;42.34;25.41
66337;SHT30;53139;45.576;5.304;2023-07-31T11:56:58;42.90;26.73
66337;SHT30;53139;45.576;5.304;2023-07-31T12:00:01;41.04;28.60
66337;SHT30;53139;45.576;5.304;2023-07-31T12:03:03;40.03;27.68
66337;SHT30;53139;45.576;5.304;2023-07-31T12:06:03;42.76;27.64
66337;SHT30;53139;45.576;5.304;2023-07-31T12:09:04;44.56;24.31
66337;SHT30;53139;45.576;5.304;2023-07-31T12:12:08;42.47;26.27
66337;SHT30;53139;45.576;5.304;2023-07-31T12:15:15;44.59;24.61
66337;SHT30;53139;45.576;5.304;2023-07-31T12:18:19;38.59;29.45
66337;SHT30;53139;45.576;5.304;2023-07-31T12:21:20;40.35;27.31
66337;SHT30;53139;45.576;5.304;2023-07-31T12:24:21;43.03;25.35
66337;SHT30;53139;45.576;5.304;2023-07-31T12:27:21;44.77;24.78
66337;SHT30;53139;45.576;5.304;2023-07-31T12:30:34;43.64;26.94
66337;SHT30;53139;45.576;5.304;2023-07-31T12:33:36;41.62;26.39
66337;SHT30;53139;45.576;5.304;2023-07-31T12:36:38;45.45;25.60
66337;SHT30;53139;45.576;5.304;2023-07-31T12:39:39;45.48;24.31
66337;SHT30;53139;45.576;5.304;2023-07-31T12:42:41;41.24;25.63
66337;SHT30;53139;45.576;5.304;2023-07-31T12:45:41;44.52;25.61
66337;SHT30;53139;45.576;5.304;2023-07-31T12:48:42;45.32;25.61
66337;SHT30;53139;45.576;5.304;2023-07-31T12:51:42;45.72;23.87
66337;SHT30;53139;45.576;5.304;2023-07-31T12:54:43;42.86;28.29
66337;SHT30;53139;45.576;5.304;2023-07-31T12:57:43;46.04;24.48
66337;SHT30;53139;45.576;5.304;2023-07-31T13:00:44;45.73;25.32
66337;SHT30;53139;45.576;5.304;2023-07-31T13:03:47;46.48;24.54
66337;SHT30;53139;45.576;5.304;2023-07-31T13:06:48;44.95;26.06
66337;SHT30;53139;45.576;5.304;2023-07-31T13:09:48;41.41;26.26
66337;SHT30;53139;45.576;5.304;2023-07-31T13:12:49;43.50;24.56
66337;SHT30;53139;45.576;5.304;2023-07-31T13:15:49;45.52;25.64
66337;SHT30;53139;45.576;5.304;2023-07-31T13:18:50;41.34;25.67
66337;SHT30;53139;45.576;5.304;2023-07-31T13:21:52;43.13;25.19
66337;SHT30;53139;45.576;5.304;2023-07-31T13:24:52;43.29;27.84
66337;SHT30;53139;45.576;5.304;2023-07-31T13:27:56;43.64;23.88
66337;SHT30;53139;45.576;5.304;2023-07-31T13:31:00;46.05;23.88
66337;SHT30;53139;45.576;5.304;2023-07-31T13:34:01;45.69;23.12
66337;SHT30;53139;45.576;5.304;2023-07-31T13:37:01;45.31;24.80
66337;SHT30;53139;45.576;5.304;2023-07-31T13:40:02;47.51;22.75
66337;SHT30;53139;45.576;5.304;2023-07-31T13:43:07;44.91;25.25
66337;SHT30;53139;45.576;5.304;2023-07-31T13:46:08;46.21;23.51
66337;SHT30;53139;45.576;5.304;2023-07-31T13:49:10;46.01;23.08
66337;SHT30;53139;45.576;5.304;2023-07-31T13:52:11;42.21;26.21
66337;SHT30;53139;45.576;5.304;2023-07-31T13:55:11;44.47;22.32
66337;SHT30;53139;45.576;5.304;2023-07-31T13:58:12;41.97;23.58
66337;SHT30;53139;45.576;5.304;2023-07-31T14:01:12;43.89;26.15
66337;SHT30;53139;45.576;5.304;2023-07-31T14:04:13;42.78;23.16
66337;SHT30;53139;45.576;5.304;2023-07-31T14:07:14;44.16;22.62
66337;SHT30;53139;45.576;5.304;2023-07-31T14:10:14;44.09;23.69
66337;SHT30;53139;45.576;5.304;2023-07-31T14:13:14;43.58;24.80
66337;SHT30;53139;45.576;5.304;2023-07-31T14:16:15;41.82;24.11
66337;SHT30;53139;45.576;5.304;2023-07-31T14:19:15;43.68;24.62
66337;SHT30;53139;45.576;5.304;2023-07-31T14:22:27;41.62;25.76
66337;SHT30;53139;45.576;5.304;2023-07-31T14:25:27;43.31;25.49
66337;SHT30;53139;45.576;5.304;2023-07-31T14:28:28;43.27;26.52
66337;SHT30;53139;45.576;5.304;2023-07-31T14:31:28;39.78;27.21
66337;SHT30;53139;45.576;5.304;2023-07-31T14:34:29;43.07;25.58
66337;SHT30;53139;45.576;5.304;2023-07-31T14:37:42;41.74;24.43
66337;SHT30;53139;45.576;5.304;2023-07-31T14:40:43;41.13;25.70
66337;SHT30;53139;45.576;5.304;2023-07-31T14:43:44;41.41;24.22
66337;SHT30;53139;45.576;5.304;2023-07-31T14:46:44;39.72;27.97
66337;SHT30;53139;45.576;5.304;2023-07-31T14:49:45;43.46;26.44
66337;SHT30;53139;45.576;5.304;2023-07-31T14:52:45;43.05;26.66
66337;SHT30;53139;45.576;5.304;2023-07-31T14:55:45;42.90;25.31
66337;SHT30;53139;45.576;5.304;2023-07-31T14:58:52;39.22;26.29
66337;SHT30;53139;45.576;5.304;2023-07-31T15:01:53;38.12;27.21
66337;SHT30;53139;45.576;5.304;2023-07-31T15:04:53;40.14;27.36
66337;SHT30;53139;45.576;5.304;2023-07-31T15:07:54;41.06;24.59
66337;SHT30;53139;45.576;5.304;2023-07-31T15:10:54;40.03;27.09
66337;SHT30;53139;45.576;5.304;2023-07-31T15:13:57;40.80;24.76
66337;SHT30;53139;45.576;5.304;2023-07-31T15:16:58;40.94;26.43
66337;SHT30;53139;45.576;5.304;2023-07-31T15:19:58;43.27;26.11
66337;SHT30;53139;45.576;5.304;2023-07-31T15:22:59;42.48;25.73
66337;SHT30;53139;45.576;5.304;2023-07-31T15:25:59;41.71;25.74
66337;SHT30;53139;45.576;5.304;2023-07-31T15:29:04;41.35;25.34
66337;SHT30;53139;45.576;5.304;2023-07-31T15:32:19;41.55;25.51
66337;SHT30;53139;45.576;5.304;2023-07-31T15:35:21;39.89;28.28
66337;SHT30;53139;45.576;5.304;2023-07-31T15:38:21;43.85;24.33
66337;SHT30;53139;45.576;5.304;2023-07-31T15:41:22;44.64;25.11
66337;SHT30;53139;45.576;5.304;2023-07-31T15:44:23;41.51;26.49
66337;SHT30;53139;45.576;5.304;2023-07-31T15:47:23;40.90;26.29
66337;SHT30;53139;45.576;5.304;2023-07-31T15:50:24;40.62;25.95
66337;SHT30;53139;45.576;5.304;2023-07-31T15:53:27;41.03;24.88
66337;SHT30;53139;45.576;5.304;2023-07-31T15:56:28;40.66;26.26
66337;SHT30;53139;45.576;5.304;2023-07-31T15:59:28;41.72;26.67
66337;SHT30;53139;45.576;5.304;2023-07-31T16:02:28;41.33;25.63
66337;SHT30;53139;45.576;5.304;2023-07-31T16:05:29;41.07;26.35
66337;SHT30;53139;45.576;5.304;2023-07-31T16:08:29;42.86;26.38
66337;SHT30;53139;45.576;5.304;2023-07-31T16:11:30;42.65;25.54
66337;SHT30;53139;45.576;5.304;2023-07-31T16:14:30;41.94;27.41
66337;SHT30;53139;45.576;5.304;2023-07-31T16:17:30;41.65;27.73
66337;SHT30;53139;45.576;5.304;2023-07-31T16:20:31;42.40;26.25
66337;SHT30;53139;45.576;5.304;2023-07-31T16:23:31;41.02;27.74
66337;SHT30;53139;45.576;5.304;2023-07-31T16:26:32;42.54;24.30
66337;SHT30;53139;45.576;5.304;2023-07-31T16:29:33;40.11;27.35
66337;SHT30;53139;45.576;5.304;2023-07-31T16:32:33;41.69;26.03
66337;SHT30;53139;45.576;5.304;2023-07-31T16:35:34;41.69;27.64
66337;SHT30;53139;45.576;5.304;2023-07-31T16:38:34;42.24;26.16
66337;SHT30;53139;45.576;5.304;2023-07-31T16:41:35;42.15;24.83
66337;SHT30;53139;45.576;5.304;2023-07-31T16:44:35;34.23;31.01
66337;SHT30;53139;45.576;5.304;2023-07-31T16:47:35;32.83;32.82
66337;SHT30;53139;45.576;5.304;2023-07-31T16:50:36;32.62;32.59
66337;SHT30;53139;45.576;5.304;2023-07-31T16:53:36;33.74;32.38
66337;SHT30;53139;45.576;5.304;2023-07-31T16:56:38;31.95;34.09
66337;SHT30;53139;45.576;5.304;2023-07-31T16:59:38;32.09;35.29
66337;SHT30;53139;45.576;5.304;2023-07-31T17:02:39;31.78;36.87
66337;SHT30;53139;45.576;5.304;2023-07-31T17:05:39;31.32;37.12
66337;SHT30;53139;45.576;5.304;2023-07-31T17:08:40;32.02;34.76
66337;SHT30;53139;45.576;5.304;2023-07-31T17:11:40;31.60;36.15
66337;SHT30;53139;45.576;5.304;2023-07-31T17:14:40;31.80;38.51
66337;SHT30;53139;45.576;5.304;2023-07-31T17:17:41;31.56;38.90
66337;SHT30;53139;45.576;5.304;2023-07-31T17:20:41;31.29;38.80
66337;SHT30;53139;45.576;5.304;2023-07-31T17:23:42;33.82;34.97
66337;SHT30;53139;45.576;5.304;2023-07-31T17:26:42;38.04;30.13
66337;SHT30;53139;45.576;5.304;2023-07-31T17:29:42;34.86;34.80
66337;SHT30;53139;45.576;5.304;2023-07-31T17:32:43;34.52;34.10
66337;SHT30;53139;45.576;5.304;2023-07-31T17:35:43;34.27;35.29
66337;SHT30;53139;45.576;5.304;2023-07-31T17:38:44;33.41;35.24
66337;SHT30;53139;45.576;5.304;2023-07-31T17:41:44;32.48;38.65
66337;SHT30;53139;45.576;5.304;2023-07-31T17:44:45;33.61;36.95
66337;SHT30;53139;45.576;5.304;2023-07-31T17:47:45;34.72;36.48
66337;SHT30;53139;45.576;5.304;2023-07-31T17:50:50;33.48;35.13
66337;SHT30;53139;45.576;5.304;2023-07-31T17:53:51;29.98;39.98
66337;SHT30;53139;45.576;5.304;2023-07-31T17:56:52;29.57;39.77
66337;SHT30;53139;45.576;5.304;2023-07-31T17:59:52;28.88;41.87
66337;SHT30;53139;45.576;5.304;2023-07-31T18:02:53;28.43;41.97
66337;SHT30;53139;45.576;5.304;2023-07-31T18:05:53;27.93;43.74
66337;SHT30;53139;45.576;5.304;2023-07-31T18:08:53;28.08;44.67
66337;SHT30;53139;45.576;5.304;2023-07-31T18:11:54;27.30;46.16
66337;SHT30;53139;45.576;5.304;2023-07-31T18:14:54;27.43;44.34
66337;SHT30;53139;45.576;5.304;2023-07-31T18:36:13;26.19;48.60
66337;SHT30;53139;45.576;5.304;2023-07-31T18:39:14;26.07;51.73
66337;SHT30;53139;45.576;5.304;2023-07-31T18:42:14;25.41;54.61
66337;SHT30;53139;45.576;5.304;2023-07-31T18:45:15;25.11;53.14
66337;SHT30;53139;45.576;5.304;2023-07-31T18:48:15;25.00;51.18
66337;SHT30;53139;45.576;5.304;2023-07-31T18:51:15;24.80;51.95
66337;SHT30;53139;45.576;5.304;2023-07-31T18:54:16;24.39;51.89
66337;SHT30;53139;45.576;5.304;2023-07-31T18:57:16;24.31;51.35
66337;SHT30;53139;45.576;5.304;2023-07-31T19:00:16;24.21;53.07
66337;SHT30;53139;45.576;5.304;2023-07-31T19:03:17;23.49;56.84
66337;SHT30;53139;45.576;5.304;2023-07-31T19:06:17;23.31;55.10
66337;SHT30;53139;45.576;5.304;2023-07-31T19:09:28;23.34;56.20
66337;SHT30;53139;45.576;5.304;2023-07-31T19:12:28;23.12;58.27
66337;SHT30;53139;45.576;5.304;2023-07-31T19:15:29;23.01;54.42
66337;SHT30;53139;45.576;5.304;2023-07-31T19:18:30;23.31;54.79
66337;SHT30;53139;45.576;5.304;2023-07-31T19:21:30;23.14;54.32
66337;SHT30;53139;45.576;5.304;2023-07-31T19:24:30;23.04;57.30
66337;SHT30;53139;45.576;5.304;2023-07-31T19:27:31;22.70;59.31